Lester B. Pearson International Airport
CYYZ : now visible

Airfield :











YOU CAN JOIN US ON...

 
LOGIN :

Register | Disclaimer

   EN    FR    IT 

 









Legend :    VFR   Marginal VFR   IFR   Intensive IFR   Very Intensive IFR
Visi :
Ceiling :
>= 8 km
>= 3000ft
5 to 8 km
1000 to 3000 ft
1500m to 5 km
500 to 1000 ft
800 to 1500m
200 to 500 ft
< 800m
< 200 ft
Symbols :   Thunderstorms  Fog  Heavy snow  Heavy precipitations  Wind > 20 kt






- Airport Elevation : 569 ft
- IATA code : YYZ


CYYZ - Lester B. Pearson International

CURRENT METAR :
  • 202200Z 15011KT 15SM FEW060 SCT260 25/17 A2968 RMK CU1CI2 SLP049 DENSITY ALT 2200FT

EXPIRED METARs :
  • 202100Z 14009KT 15SM FEW060 BKN240 26/17 A2968 RMK CU1CI4 SLP049 DENSITY ALT 2300FT
  • 202000Z 17009KT 15SM FEW060 BKN240 26/18 A2969 RMK CU1CI6 PRESFR SLP055 DENSITY ALT 2200FT

TAF TAF CYYZ
Valid from the 20 at 21:00 until the 22 at 00:00 UTC


202038Z 2021/2124 17008KT P6SM SCT060
FM210300 16012KT P6SM SCT050 BKN200
FM210500 21015G25KT P6SM -SHRA OVC040
TEMPO 2105/2107 VRB15G25KT P6SM VCTS BKN020 OVC040CB
FM210700 23015G25KT 4SM SHRA BR OVC020
PROB40 2107/2112 VRB20G30KT 1SM +TSRA BR BKN007 OVC020CB
FM211300 22020G32KT P6SM BKN030
FM211700 25018G28KT P6SM -SHRA SCT020 BKN050
FM212100 27020G30KT P6SM BKN050
BECMG 2122/2124 30020KT FEW050 RMK NXT FCST BY 210000Z
CZYZ FIR / North America



MET'MAP, your aeronautical weather chart ! - Copyright ORBIFLY December 2007 - Disclaimer

ORBIFLY MET'MAP TEAM :

Programming & Development : Alexandra Zaïnal
Concept & original design : Baudouin d'Aumeries
Assistance for programming : Marc-Olivier Méhu
Technical & hardware support : Manuel Goepfert

Contact : metmap@orbifly.com




SOURCES & CREDITS :

   NOAA       Earth
Advisory